sensor_id;sensor_type;location;lat;lon;timestamp;P1;durP1;ratioP1;P2;durP2;ratioP2
23222;SDS011;11780;13.904;100.620;2024-03-02T00:00:53;23.00;;;17.30;;
23222;SDS011;11780;13.904;100.620;2024-03-02T00:03:24;26.95;;;16.83;;
23222;SDS011;11780;13.904;100.620;2024-03-02T00:05:55;23.20;;;18.40;;
23222;SDS011;11780;13.904;100.620;2024-03-02T00:08:26;22.58;;;18.92;;
23222;SDS011;11780;13.904;100.620;2024-03-02T00:11:30;24.48;;;18.63;;
23222;SDS011;11780;13.904;100.620;2024-03-02T00:14:06;23.15;;;19.05;;
23222;SDS011;11780;13.904;100.620;2024-03-02T00:16:38;26.23;;;18.92;;
23222;SDS011;11780;13.904;100.620;2024-03-02T00:19:09;23.98;;;18.67;;
23222;SDS011;11780;13.904;100.620;2024-03-02T00:21:41;29.20;;;19.33;;
23222;SDS011;11780;13.904;100.620;2024-03-02T00:27:06;21.55;;;17.90;;
23222;SDS011;11780;13.904;100.620;2024-03-02T00:29:41;22.38;;;17.95;;
23222;SDS011;11780;13.904;100.620;2024-03-02T00:32:15;21.88;;;18.17;;
23222;SDS011;11780;13.904;100.620;2024-03-02T00:34:47;23.20;;;19.08;;
23222;SDS011;11780;13.904;100.620;2024-03-02T00:37:18;20.75;;;18.60;;
23222;SDS011;11780;13.904;100.620;2024-03-02T00:42:21;19.55;;;17.17;;
23222;SDS011;11780;13.904;100.620;2024-03-02T00:44:51;21.38;;;19.05;;
23222;SDS011;11780;13.904;100.620;2024-03-02T00:47:22;20.80;;;18.27;;
23222;SDS011;11780;13.904;100.620;2024-03-02T00:49:53;20.92;;;17.60;;
23222;SDS011;11780;13.904;100.620;2024-03-02T00:52:24;23.70;;;18.05;;
23222;SDS011;11780;13.904;100.620;2024-03-02T00:54:57;24.00;;;18.83;;
23222;SDS011;11780;13.904;100.620;2024-03-02T00:57:28;21.95;;;18.02;;
23222;SDS011;11780;13.904;100.620;2024-03-02T01:00:04;20.63;;;17.38;;
23222;SDS011;11780;13.904;100.620;2024-03-02T01:02:39;22.30;;;18.80;;
23222;SDS011;11780;13.904;100.620;2024-03-02T01:05:10;20.67;;;18.15;;
23222;SDS011;11780;13.904;100.620;2024-03-02T01:07:41;22.57;;;18.50;;
23222;SDS011;11780;13.904;100.620;2024-03-02T01:10:12;20.40;;;18.25;;
23222;SDS011;11780;13.904;100.620;2024-03-02T01:12:42;20.27;;;17.60;;
23222;SDS011;11780;13.904;100.620;2024-03-02T01:15:13;20.92;;;18.27;;
23222;SDS011;11780;13.904;100.620;2024-03-02T01:17:48;20.15;;;17.88;;
23222;SDS011;11780;13.904;100.620;2024-03-02T01:20:22;25.00;;;18.38;;
23222;SDS011;11780;13.904;100.620;2024-03-02T01:22:54;20.25;;;18.20;;
23222;SDS011;11780;13.904;100.620;2024-03-02T01:25:25;20.92;;;18.75;;
23222;SDS011;11780;13.904;100.620;2024-03-02T01:27:56;20.48;;;18.38;;
23222;SDS011;11780;13.904;100.620;2024-03-02T01:30:27;22.08;;;18.23;;
23222;SDS011;11780;13.904;100.620;2024-03-02T01:32:58;21.40;;;18.85;;
23222;SDS011;11780;13.904;100.620;2024-03-02T01:35:30;20.67;;;18.60;;
23222;SDS011;11780;13.904;100.620;2024-03-02T01:38:01;20.38;;;18.10;;
23222;SDS011;11780;13.904;100.620;2024-03-02T01:40:33;19.08;;;17.05;;
23222;SDS011;11780;13.904;100.620;2024-03-02T01:43:07;21.10;;;18.58;;
23222;SDS011;11780;13.904;100.620;2024-03-02T01:45:38;21.35;;;19.35;;
23222;SDS011;11780;13.904;100.620;2024-03-02T01:48:09;20.63;;;18.20;;
23222;SDS011;11780;13.904;100.620;2024-03-02T01:50:40;20.85;;;18.65;;
23222;SDS011;11780;13.904;100.620;2024-03-02T01:53:11;20.48;;;18.42;;
23222;SDS011;11780;13.904;100.620;2024-03-02T01:55:42;19.55;;;17.75;;
23222;SDS011;11780;13.904;100.620;2024-03-02T01:58:12;22.03;;;19.00;;
23222;SDS011;11780;13.904;100.620;2024-03-02T02:03:14;20.00;;;17.50;;
23222;SDS011;11780;13.904;100.620;2024-03-02T02:05:45;23.13;;;19.23;;
23222;SDS011;11780;13.904;100.620;2024-03-02T02:08:17;21.67;;;18.75;;
23222;SDS011;11780;13.904;100.620;2024-03-02T02:10:48;21.07;;;18.93;;
23222;SDS011;11780;13.904;100.620;2024-03-02T02:13:19;21.63;;;18.83;;
23222;SDS011;11780;13.904;100.620;2024-03-02T02:15:49;22.73;;;20.02;;
23222;SDS011;11780;13.904;100.620;2024-03-02T02:18:20;22.80;;;20.45;;
23222;SDS011;11780;13.904;100.620;2024-03-02T02:20:51;23.58;;;21.08;;
23222;SDS011;11780;13.904;100.620;2024-03-02T02:23:22;24.00;;;21.42;;
23222;SDS011;11780;13.904;100.620;2024-03-02T02:25:53;25.65;;;21.02;;
23222;SDS011;11780;13.904;100.620;2024-03-02T02:28:24;24.98;;;22.50;;
23222;SDS011;11780;13.904;100.620;2024-03-02T02:30:55;26.27;;;21.13;;
23222;SDS011;11780;13.904;100.620;2024-03-02T02:33:30;23.30;;;20.85;;
23222;SDS011;11780;13.904;100.620;2024-03-02T02:38:34;24.77;;;22.42;;
23222;SDS011;11780;13.904;100.620;2024-03-02T02:41:10;26.23;;;23.45;;
23222;SDS011;11780;13.904;100.620;2024-03-02T02:43:41;25.63;;;23.08;;
23222;SDS011;11780;13.904;100.620;2024-03-02T02:46:13;24.98;;;22.38;;
23222;SDS011;11780;13.904;100.620;2024-03-02T02:48:43;29.10;;;23.13;;
23222;SDS011;11780;13.904;100.620;2024-03-02T02:51:14;27.35;;;24.30;;
23222;SDS011;11780;13.904;100.620;2024-03-02T02:53:46;25.85;;;23.08;;
23222;SDS011;11780;13.904;100.620;2024-03-02T02:56:17;26.25;;;23.50;;
23222;SDS011;11780;13.904;100.620;2024-03-02T02:58:48;26.13;;;23.30;;
23222;SDS011;11780;13.904;100.620;2024-03-02T03:01:19;27.83;;;24.17;;
23222;SDS011;11780;13.904;100.620;2024-03-02T03:03:50;36.25;;;27.15;;
23222;SDS011;11780;13.904;100.620;2024-03-02T03:06:21;31.80;;;28.35;;
23222;SDS011;11780;13.904;100.620;2024-03-02T03:08:52;29.67;;;24.77;;
23222;SDS011;11780;13.904;100.620;2024-03-02T03:11:23;34.70;;;24.98;;
23222;SDS011;11780;13.904;100.620;2024-03-02T03:13:56;28.13;;;24.58;;
23222;SDS011;11780;13.904;100.620;2024-03-02T03:16:27;27.65;;;24.73;;
23222;SDS011;11780;13.904;100.620;2024-03-02T03:18:57;33.47;;;27.95;;
23222;SDS011;11780;13.904;100.620;2024-03-02T03:21:28;32.10;;;28.70;;
23222;SDS011;11780;13.904;100.620;2024-03-02T03:26:30;28.20;;;23.88;;
23222;SDS011;11780;13.904;100.620;2024-03-02T03:29:01;26.67;;;23.92;;
23222;SDS011;11780;13.904;100.620;2024-03-02T03:31:32;29.85;;;24.88;;
23222;SDS011;11780;13.904;100.620;2024-03-02T03:34:03;44.50;;;31.23;;
23222;SDS011;11780;13.904;100.620;2024-03-02T03:36:34;37.38;;;28.27;;
23222;SDS011;11780;13.904;100.620;2024-03-02T03:39:05;35.53;;;28.83;;
23222;SDS011;11780;13.904;100.620;2024-03-02T03:41:37;34.33;;;27.40;;
23222;SDS011;11780;13.904;100.620;2024-03-02T03:44:07;33.10;;;26.58;;
23222;SDS011;11780;13.904;100.620;2024-03-02T03:46:38;30.92;;;27.42;;
23222;SDS011;11780;13.904;100.620;2024-03-02T03:49:09;31.75;;;26.85;;
23222;SDS011;11780;13.904;100.620;2024-03-02T03:51:40;29.20;;;25.40;;
23222;SDS011;11780;13.904;100.620;2024-03-02T03:54:11;27.83;;;24.83;;
23222;SDS011;11780;13.904;100.620;2024-03-02T03:56:41;28.50;;;25.42;;
23222;SDS011;11780;13.904;100.620;2024-03-02T03:59:13;27.90;;;24.50;;
23222;SDS011;11780;13.904;100.620;2024-03-02T04:01:44;29.30;;;25.00;;
23222;SDS011;11780;13.904;100.620;2024-03-02T04:04:15;27.83;;;24.10;;
23222;SDS011;11780;13.904;100.620;2024-03-02T04:06:45;27.98;;;24.38;;
23222;SDS011;11780;13.904;100.620;2024-03-02T04:09:16;26.98;;;24.15;;
23222;SDS011;11780;13.904;100.620;2024-03-02T04:11:47;28.02;;;25.05;;
23222;SDS011;11780;13.904;100.620;2024-03-02T04:14:18;26.13;;;23.42;;
23222;SDS011;11780;13.904;100.620;2024-03-02T04:16:48;27.10;;;23.57;;
23222;SDS011;11780;13.904;100.620;2024-03-02T04:19:19;28.67;;;24.30;;
23222;SDS011;11780;13.904;100.620;2024-03-02T04:21:50;27.98;;;24.98;;
23222;SDS011;11780;13.904;100.620;2024-03-02T04:26:52;29.05;;;26.15;;
23222;SDS011;11780;13.904;100.620;2024-03-02T04:29:22;26.20;;;23.55;;
23222;SDS011;11780;13.904;100.620;2024-03-02T04:31:53;28.90;;;25.92;;
23222;SDS011;11780;13.904;100.620;2024-03-02T04:36:55;27.92;;;25.17;;
23222;SDS011;11780;13.904;100.620;2024-03-02T04:39:25;29.33;;;26.58;;
23222;SDS011;11780;13.904;100.620;2024-03-02T04:44:28;28.77;;;25.98;;
23222;SDS011;11780;13.904;100.620;2024-03-02T04:46:59;27.48;;;24.75;;
23222;SDS011;11780;13.904;100.620;2024-03-02T04:49:29;26.23;;;23.67;;
23222;SDS011;11780;13.904;100.620;2024-03-02T04:54:31;26.75;;;24.00;;
23222;SDS011;11780;13.904;100.620;2024-03-02T04:57:04;26.92;;;24.38;;
23222;SDS011;11780;13.904;100.620;2024-03-02T04:59:35;27.27;;;24.60;;
23222;SDS011;11780;13.904;100.620;2024-03-02T05:02:06;25.65;;;23.25;;
23222;SDS011;11780;13.904;100.620;2024-03-02T05:04:36;26.30;;;23.65;;
23222;SDS011;11780;13.904;100.620;2024-03-02T05:07:07;25.75;;;23.23;;
23222;SDS011;11780;13.904;100.620;2024-03-02T05:09:39;26.65;;;23.88;;
23222;SDS011;11780;13.904;100.620;2024-03-02T05:12:10;25.20;;;22.60;;
23222;SDS011;11780;13.904;100.620;2024-03-02T05:14:59;26.95;;;24.00;;
23222;SDS011;11780;13.904;100.620;2024-03-02T05:17:30;26.80;;;23.92;;
23222;SDS011;11780;13.904;100.620;2024-03-02T05:20:01;27.25;;;24.35;;
23222;SDS011;11780;13.904;100.620;2024-03-02T05:22:34;27.88;;;24.83;;
23222;SDS011;11780;13.904;100.620;2024-03-02T05:25:06;27.58;;;24.90;;
23222;SDS011;11780;13.904;100.620;2024-03-02T05:27:39;26.80;;;24.23;;
23222;SDS011;11780;13.904;100.620;2024-03-02T05:30:11;25.95;;;23.38;;
23222;SDS011;11780;13.904;100.620;2024-03-02T05:35:12;28.08;;;25.27;;
23222;SDS011;11780;13.904;100.620;2024-03-02T05:37:44;30.35;;;26.30;;
23222;SDS011;11780;13.904;100.620;2024-03-02T05:40:15;27.77;;;25.08;;
23222;SDS011;11780;13.904;100.620;2024-03-02T05:42:49;26.30;;;23.70;;
23222;SDS011;11780;13.904;100.620;2024-03-02T05:45:24;29.77;;;25.88;;
23222;SDS011;11780;13.904;100.620;2024-03-02T05:50:26;28.30;;;25.03;;
23222;SDS011;11780;13.904;100.620;2024-03-02T05:52:57;28.83;;;26.08;;
23222;SDS011;11780;13.904;100.620;2024-03-02T05:55:28;27.38;;;24.77;;
23222;SDS011;11780;13.904;100.620;2024-03-02T05:57:59;29.40;;;26.55;;
23222;SDS011;11780;13.904;100.620;2024-03-02T06:00:56;29.77;;;26.73;;
23222;SDS011;11780;13.904;100.620;2024-03-02T06:05:59;29.77;;;26.53;;
23222;SDS011;11780;13.904;100.620;2024-03-02T06:08:30;30.10;;;27.02;;
23222;SDS011;11780;13.904;100.620;2024-03-02T06:11:01;30.55;;;27.33;;
23222;SDS011;11780;13.904;100.620;2024-03-02T06:13:32;32.47;;;27.48;;
23222;SDS011;11780;13.904;100.620;2024-03-02T06:16:03;32.50;;;29.10;;
23222;SDS011;11780;13.904;100.620;2024-03-02T06:18:34;31.77;;;28.77;;
23222;SDS011;11780;13.904;100.620;2024-03-02T06:23:35;34.88;;;30.83;;
23222;SDS011;11780;13.904;100.620;2024-03-02T06:26:06;35.47;;;31.17;;
23222;SDS011;11780;13.904;100.620;2024-03-02T06:28:38;32.75;;;29.42;;
23222;SDS011;11780;13.904;100.620;2024-03-02T06:33:39;33.95;;;30.42;;
23222;SDS011;11780;13.904;100.620;2024-03-02T06:36:12;33.83;;;30.42;;
23222;SDS011;11780;13.904;100.620;2024-03-02T06:38:45;33.75;;;30.30;;
23222;SDS011;11780;13.904;100.620;2024-03-02T06:41:16;33.63;;;30.30;;
23222;SDS011;11780;13.904;100.620;2024-03-02T06:43:48;40.00;;;34.42;;
23222;SDS011;11780;13.904;100.620;2024-03-02T06:46:19;35.70;;;31.90;;
23222;SDS011;11780;13.904;100.620;2024-03-02T06:48:50;37.63;;;32.42;;
23222;SDS011;11780;13.904;100.620;2024-03-02T06:53:51;35.28;;;31.80;;
23222;SDS011;11780;13.904;100.620;2024-03-02T06:56:22;34.33;;;30.85;;
23222;SDS011;11780;13.904;100.620;2024-03-02T06:58:55;36.92;;;32.03;;
23222;SDS011;11780;13.904;100.620;2024-03-02T07:01:28;34.67;;;31.40;;
23222;SDS011;11780;13.904;100.620;2024-03-02T07:03:59;35.80;;;32.00;;
23222;SDS011;11780;13.904;100.620;2024-03-02T07:06:30;36.50;;;32.58;;
23222;SDS011;11780;13.904;100.620;2024-03-02T07:09:03;35.85;;;31.38;;
23222;SDS011;11780;13.904;100.620;2024-03-02T07:11:34;37.38;;;32.45;;
23222;SDS011;11780;13.904;100.620;2024-03-02T07:14:08;35.85;;;32.25;;
23222;SDS011;11780;13.904;100.620;2024-03-02T07:16:38;34.45;;;30.90;;
23222;SDS011;11780;13.904;100.620;2024-03-02T07:19:11;35.08;;;31.27;;
23222;SDS011;11780;13.904;100.620;2024-03-02T07:21:42;37.10;;;33.25;;
23222;SDS011;11780;13.904;100.620;2024-03-02T07:24:13;34.05;;;30.85;;
23222;SDS011;11780;13.904;100.620;2024-03-02T07:26:46;34.58;;;30.05;;
23222;SDS011;11780;13.904;100.620;2024-03-02T07:29:20;34.97;;;31.40;;
23222;SDS011;11780;13.904;100.620;2024-03-02T07:31:53;36.47;;;32.13;;
23222;SDS011;11780;13.904;100.620;2024-03-02T07:34:29;40.15;;;31.30;;
23222;SDS011;11780;13.904;100.620;2024-03-02T07:39:31;35.90;;;30.42;;
23222;SDS011;11780;13.904;100.620;2024-03-02T07:42:01;35.20;;;31.50;;
23222;SDS011;11780;13.904;100.620;2024-03-02T07:44:32;33.72;;;30.50;;
23222;SDS011;11780;13.904;100.620;2024-03-02T07:47:06;34.88;;;31.15;;
23222;SDS011;11780;13.904;100.620;2024-03-02T07:49:37;34.28;;;30.75;;
23222;SDS011;11780;13.904;100.620;2024-03-02T07:54:39;36.03;;;32.23;;
23222;SDS011;11780;13.904;100.620;2024-03-02T07:57:10;41.58;;;34.10;;
23222;SDS011;11780;13.904;100.620;2024-03-02T08:02:13;34.47;;;30.88;;
23222;SDS011;11780;13.904;100.620;2024-03-02T08:04:44;37.72;;;33.65;;
23222;SDS011;11780;13.904;100.620;2024-03-02T08:07:16;40.22;;;33.63;;
23222;SDS011;11780;13.904;100.620;2024-03-02T08:09:48;37.80;;;33.42;;
23222;SDS011;11780;13.904;100.620;2024-03-02T08:12:19;37.97;;;33.50;;
23222;SDS011;11780;13.904;100.620;2024-03-02T08:14:53;37.58;;;33.38;;
23222;SDS011;11780;13.904;100.620;2024-03-02T08:17:24;35.45;;;31.77;;
23222;SDS011;11780;13.904;100.620;2024-03-02T08:19:55;35.47;;;31.67;;
23222;SDS011;11780;13.904;100.620;2024-03-02T08:22:26;38.33;;;34.17;;
23222;SDS011;11780;13.904;100.620;2024-03-02T08:24:57;39.10;;;34.15;;
23222;SDS011;11780;13.904;100.620;2024-03-02T08:27:31;38.40;;;34.35;;
23222;SDS011;11780;13.904;100.620;2024-03-02T08:30:05;36.60;;;32.15;;
23222;SDS011;11780;13.904;100.620;2024-03-02T08:32:41;36.53;;;31.80;;
23222;SDS011;11780;13.904;100.620;2024-03-02T08:35:13;36.40;;;32.45;;
23222;SDS011;11780;13.904;100.620;2024-03-02T08:37:44;37.92;;;34.03;;
23222;SDS011;11780;13.904;100.620;2024-03-02T08:40:15;38.47;;;34.05;;
23222;SDS011;11780;13.904;100.620;2024-03-02T08:42:47;36.28;;;32.50;;
23222;SDS011;11780;13.904;100.620;2024-03-02T08:47:50;37.50;;;33.40;;
23222;SDS011;11780;13.904;100.620;2024-03-02T08:52:54;35.42;;;31.83;;
23222;SDS011;11780;13.904;100.620;2024-03-02T08:55:25;37.08;;;33.28;;
23222;SDS011;11780;13.904;100.620;2024-03-02T08:57:58;36.78;;;32.80;;
23222;SDS011;11780;13.904;100.620;2024-03-02T09:00:29;36.65;;;32.75;;
23222;SDS011;11780;13.904;100.620;2024-03-02T09:03:00;41.72;;;33.05;;
23222;SDS011;11780;13.904;100.620;2024-03-02T09:05:31;36.38;;;32.45;;
23222;SDS011;11780;13.904;100.620;2024-03-02T09:08:02;37.08;;;32.13;;
23222;SDS011;11780;13.904;100.620;2024-03-02T09:10:33;34.70;;;31.10;;
23222;SDS011;11780;13.904;100.620;2024-03-02T09:13:04;33.72;;;30.27;;
23222;SDS011;11780;13.904;100.620;2024-03-02T09:15:35;31.85;;;28.50;;
23222;SDS011;11780;13.904;100.620;2024-03-02T09:18:09;35.10;;;31.38;;
23222;SDS011;11780;13.904;100.620;2024-03-02T09:20:40;34.42;;;29.52;;
23222;SDS011;11780;13.904;100.620;2024-03-02T09:23:11;31.42;;;28.17;;
23222;SDS011;11780;13.904;100.620;2024-03-02T09:25:42;34.30;;;30.70;;
23222;SDS011;11780;13.904;100.620;2024-03-02T09:28:15;31.42;;;28.23;;
23222;SDS011;11780;13.904;100.620;2024-03-02T09:30:46;31.05;;;28.00;;
23222;SDS011;11780;13.904;100.620;2024-03-02T09:33:17;33.90;;;29.02;;
23222;SDS011;11780;13.904;100.620;2024-03-02T09:35:48;33.63;;;30.38;;
23222;SDS011;11780;13.904;100.620;2024-03-02T09:38:21;32.22;;;28.83;;
23222;SDS011;11780;13.904;100.620;2024-03-02T09:40:52;31.35;;;28.33;;
23222;SDS011;11780;13.904;100.620;2024-03-02T09:43:23;32.45;;;29.05;;
23222;SDS011;11780;13.904;100.620;2024-03-02T09:48:25;32.57;;;29.43;;
23222;SDS011;11780;13.904;100.620;2024-03-02T09:50:57;31.60;;;28.23;;
23222;SDS011;11780;13.904;100.620;2024-03-02T09:53:32;30.20;;;26.80;;
23222;SDS011;11780;13.904;100.620;2024-03-02T09:56:03;30.63;;;27.40;;
23222;SDS011;11780;13.904;100.620;2024-03-02T09:58:34;30.52;;;27.38;;
23222;SDS011;11780;13.904;100.620;2024-03-02T10:01:06;31.48;;;27.55;;
23222;SDS011;11780;13.904;100.620;2024-03-02T10:03:37;31.40;;;28.10;;
23222;SDS011;11780;13.904;100.620;2024-03-02T10:06:22;31.05;;;26.05;;
23222;SDS011;11780;13.904;100.620;2024-03-02T10:08:54;29.92;;;26.88;;
23222;SDS011;11780;13.904;100.620;2024-03-02T10:11:26;30.42;;;26.25;;
23222;SDS011;11780;13.904;100.620;2024-03-02T10:14:06;29.80;;;26.77;;
23222;SDS011;11780;13.904;100.620;2024-03-02T10:16:41;29.50;;;26.30;;
23222;SDS011;11780;13.904;100.620;2024-03-02T10:19:23;28.63;;;25.42;;
23222;SDS011;11780;13.904;100.620;2024-03-02T10:21:56;30.33;;;26.88;;
23222;SDS011;11780;13.904;100.620;2024-03-02T10:24:43;29.20;;;26.33;;
23222;SDS011;11780;13.904;100.620;2024-03-02T10:27:26;28.17;;;25.17;;
23222;SDS011;11780;13.904;100.620;2024-03-02T10:29:58;27.52;;;24.58;;
23222;SDS011;11780;13.904;100.620;2024-03-02T10:32:29;30.50;;;24.45;;
23222;SDS011;11780;13.904;100.620;2024-03-02T10:35:01;25.02;;;22.35;;
23222;SDS011;11780;13.904;100.620;2024-03-02T10:37:33;28.70;;;25.10;;
23222;SDS011;11780;13.904;100.620;2024-03-02T10:40:05;26.15;;;23.63;;
23222;SDS011;11780;13.904;100.620;2024-03-02T10:42:38;29.60;;;25.65;;
23222;SDS011;11780;13.904;100.620;2024-03-02T10:45:10;27.23;;;24.65;;
23222;SDS011;11780;13.904;100.620;2024-03-02T10:47:43;28.42;;;25.42;;
23222;SDS011;11780;13.904;100.620;2024-03-02T10:50:14;28.48;;;25.65;;
23222;SDS011;11780;13.904;100.620;2024-03-02T10:52:47;29.20;;;26.27;;
23222;SDS011;11780;13.904;100.620;2024-03-02T10:55:18;33.28;;;27.88;;
23222;SDS011;11780;13.904;100.620;2024-03-02T10:57:53;30.27;;;26.60;;
23222;SDS011;11780;13.904;100.620;2024-03-02T11:00:26;29.17;;;26.23;;
23222;SDS011;11780;13.904;100.620;2024-03-02T11:03:06;29.17;;;26.08;;
23222;SDS011;11780;13.904;100.620;2024-03-02T11:05:43;28.77;;;25.60;;
23222;SDS011;11780;13.904;100.620;2024-03-02T11:08:16;30.35;;;25.33;;
23222;SDS011;11780;13.904;100.620;2024-03-02T11:10:57;33.65;;;26.33;;
23222;SDS011;11780;13.904;100.620;2024-03-02T11:13:31;28.98;;;25.83;;
23222;SDS011;11780;13.904;100.620;2024-03-02T11:16:09;27.65;;;24.88;;
23222;SDS011;11780;13.904;100.620;2024-03-02T11:18:50;28.48;;;25.67;;
23222;SDS011;11780;13.904;100.620;2024-03-02T11:21:22;31.17;;;25.75;;
23222;SDS011;11780;13.904;100.620;2024-03-02T11:23:53;26.40;;;23.77;;
23222;SDS011;11780;13.904;100.620;2024-03-02T11:26:25;27.77;;;23.40;;
23222;SDS011;11780;13.904;100.620;2024-03-02T11:28:58;27.38;;;24.63;;
23222;SDS011;11780;13.904;100.620;2024-03-02T11:32:14;28.25;;;24.70;;
23222;SDS011;11780;13.904;100.620;2024-03-02T11:34:36;29.42;;;24.52;;
23222;SDS011;11780;13.904;100.620;2024-03-02T11:37:09;27.40;;;24.33;;
23222;SDS011;11780;13.904;100.620;2024-03-02T11:39:40;26.42;;;23.52;;
23222;SDS011;11780;13.904;100.620;2024-03-02T11:42:11;29.13;;;26.20;;
23222;SDS011;11780;13.904;100.620;2024-03-02T11:44:46;27.73;;;24.73;;
23222;SDS011;11780;13.904;100.620;2024-03-02T11:47:18;29.90;;;26.15;;
23222;SDS011;11780;13.904;100.620;2024-03-02T11:49:50;29.40;;;25.02;;
23222;SDS011;11780;13.904;100.620;2024-03-02T11:52:24;27.60;;;24.92;;
23222;SDS011;11780;13.904;100.620;2024-03-02T11:54:57;27.65;;;24.83;;
23222;SDS011;11780;13.904;100.620;2024-03-02T11:57:29;26.38;;;23.67;;
23222;SDS011;11780;13.904;100.620;2024-03-02T12:00:01;29.38;;;23.80;;
23222;SDS011;11780;13.904;100.620;2024-03-02T12:02:33;27.33;;;24.33;;
23222;SDS011;11780;13.904;100.620;2024-03-02T12:07:35;26.42;;;23.75;;
23222;SDS011;11780;13.904;100.620;2024-03-02T12:10:08;28.00;;;23.10;;
23222;SDS011;11780;13.904;100.620;2024-03-02T12:12:40;25.38;;;22.77;;
23222;SDS011;11780;13.904;100.620;2024-03-02T12:15:11;25.67;;;22.95;;
23222;SDS011;11780;13.904;100.620;2024-03-02T12:17:42;25.80;;;23.10;;
23222;SDS011;11780;13.904;100.620;2024-03-02T12:20:13;26.52;;;22.83;;
23222;SDS011;11780;13.904;100.620;2024-03-02T12:22:44;25.42;;;22.75;;
23222;SDS011;11780;13.904;100.620;2024-03-02T12:25:15;29.75;;;22.73;;
23222;SDS011;11780;13.904;100.620;2024-03-02T12:27:47;29.15;;;23.25;;
23222;SDS011;11780;13.904;100.620;2024-03-02T12:30:21;29.27;;;23.23;;
23222;SDS011;11780;13.904;100.620;2024-03-02T12:32:52;26.40;;;23.67;;
23222;SDS011;11780;13.904;100.620;2024-03-02T12:35:25;26.02;;;23.27;;
23222;SDS011;11780;13.904;100.620;2024-03-02T12:37:56;27.65;;;22.33;;
23222;SDS011;11780;13.904;100.620;2024-03-02T12:40:28;24.92;;;22.40;;
23222;SDS011;11780;13.904;100.620;2024-03-02T12:43:01;26.17;;;22.83;;
23222;SDS011;11780;13.904;100.620;2024-03-02T12:45:33;27.95;;;21.88;;
23222;SDS011;11780;13.904;100.620;2024-03-02T12:48:05;26.42;;;22.80;;
23222;SDS011;11780;13.904;100.620;2024-03-02T12:50:36;27.50;;;22.17;;
23222;SDS011;11780;13.904;100.620;2024-03-02T12:53:13;25.02;;;22.10;;
23222;SDS011;11780;13.904;100.620;2024-03-02T12:55:46;25.90;;;22.60;;
23222;SDS011;11780;13.904;100.620;2024-03-02T12:58:18;24.63;;;21.95;;
23222;SDS011;11780;13.904;100.620;2024-03-02T13:01:09;26.02;;;22.98;;
23222;SDS011;11780;13.904;100.620;2024-03-02T13:03:41;23.25;;;20.85;;
23222;SDS011;11780;13.904;100.620;2024-03-02T13:08:43;25.77;;;22.92;;
23222;SDS011;11780;13.904;100.620;2024-03-02T13:11:16;25.25;;;22.55;;
23222;SDS011;11780;13.904;100.620;2024-03-02T13:13:48;26.02;;;22.92;;
23222;SDS011;11780;13.904;100.620;2024-03-02T13:16:20;24.33;;;21.95;;
23222;SDS011;11780;13.904;100.620;2024-03-02T13:18:59;23.70;;;21.30;;
23222;SDS011;11780;13.904;100.620;2024-03-02T13:21:30;24.70;;;21.73;;
23222;SDS011;11780;13.904;100.620;2024-03-02T13:26:33;24.85;;;22.20;;
23222;SDS011;11780;13.904;100.620;2024-03-02T13:31:35;26.20;;;23.50;;
23222;SDS011;11780;13.904;100.620;2024-03-02T13:34:05;27.55;;;24.55;;
23222;SDS011;11780;13.904;100.620;2024-03-02T13:36:37;30.55;;;25.33;;
23222;SDS011;11780;13.904;100.620;2024-03-02T13:39:08;28.70;;;25.73;;
23222;SDS011;11780;13.904;100.620;2024-03-02T13:41:40;29.50;;;26.25;;
23222;SDS011;11780;13.904;100.620;2024-03-02T13:46:42;31.30;;;28.02;;
23222;SDS011;11780;13.904;100.620;2024-03-02T13:49:17;30.42;;;26.33;;
23222;SDS011;11780;13.904;100.620;2024-03-02T13:51:49;29.80;;;26.50;;
23222;SDS011;11780;13.904;100.620;2024-03-02T13:54:20;34.10;;;27.98;;
23222;SDS011;11780;13.904;100.620;2024-03-02T13:56:53;31.85;;;27.98;;
23222;SDS011;11780;13.904;100.620;2024-03-02T13:59:25;30.25;;;27.35;;
23222;SDS011;11780;13.904;100.620;2024-03-02T14:02:03;32.13;;;28.80;;
23222;SDS011;11780;13.904;100.620;2024-03-02T14:04:36;32.28;;;28.83;;
23222;SDS011;11780;13.904;100.620;2024-03-02T14:07:08;40.50;;;28.52;;
23222;SDS011;11780;13.904;100.620;2024-03-02T14:09:42;31.30;;;27.83;;
23222;SDS011;11780;13.904;100.620;2024-03-02T14:12:13;31.88;;;28.55;;
23222;SDS011;11780;13.904;100.620;2024-03-02T14:17:14;33.63;;;29.98;;
23222;SDS011;11780;13.904;100.620;2024-03-02T14:19:47;33.30;;;29.83;;
23222;SDS011;11780;13.904;100.620;2024-03-02T14:22:20;33.95;;;29.75;;
23222;SDS011;11780;13.904;100.620;2024-03-02T14:24:51;33.65;;;30.23;;
23222;SDS011;11780;13.904;100.620;2024-03-02T14:27:22;33.78;;;30.13;;
23222;SDS011;11780;13.904;100.620;2024-03-02T14:30:18;35.60;;;31.70;;
23222;SDS011;11780;13.904;100.620;2024-03-02T14:32:49;34.80;;;30.80;;
23222;SDS011;11780;13.904;100.620;2024-03-02T14:35:22;33.88;;;30.48;;
23222;SDS011;11780;13.904;100.620;2024-03-02T14:37:54;33.17;;;29.88;;
23222;SDS011;11780;13.904;100.620;2024-03-02T14:40:27;33.78;;;30.30;;
23222;SDS011;11780;13.904;100.620;2024-03-02T14:43:01;35.03;;;29.45;;
23222;SDS011;11780;13.904;100.620;2024-03-02T14:45:32;31.25;;;27.65;;
23222;SDS011;11780;13.904;100.620;2024-03-02T14:48:03;30.30;;;27.20;;
23222;SDS011;11780;13.904;100.620;2024-03-02T14:50:35;32.40;;;28.98;;
23222;SDS011;11780;13.904;100.620;2024-03-02T14:53:07;35.88;;;28.90;;
23222;SDS011;11780;13.904;100.620;2024-03-02T14:55:38;33.47;;;29.45;;
23222;SDS011;11780;13.904;100.620;2024-03-02T14:58:11;33.60;;;30.25;;
23222;SDS011;11780;13.904;100.620;2024-03-02T15:00:43;32.17;;;28.73;;
23222;SDS011;11780;13.904;100.620;2024-03-02T15:03:16;33.75;;;30.23;;
23222;SDS011;11780;13.904;100.620;2024-03-02T15:06:25;36.33;;;30.17;;
23222;SDS011;11780;13.904;100.620;2024-03-02T15:08:58;36.25;;;31.95;;
23222;SDS011;11780;13.904;100.620;2024-03-02T15:11:31;36.47;;;32.80;;
23222;SDS011;11780;13.904;100.620;2024-03-02T15:16:32;37.95;;;33.83;;
23222;SDS011;11780;13.904;100.620;2024-03-02T15:19:04;36.95;;;33.13;;
23222;SDS011;11780;13.904;100.620;2024-03-02T15:21:39;35.97;;;32.47;;
23222;SDS011;11780;13.904;100.620;2024-03-02T15:24:10;36.63;;;32.83;;
23222;SDS011;11780;13.904;100.620;2024-03-02T15:26:41;37.47;;;33.58;;
23222;SDS011;11780;13.904;100.620;2024-03-02T15:29:12;36.95;;;32.65;;
23222;SDS011;11780;13.904;100.620;2024-03-02T15:31:44;39.75;;;33.90;;
23222;SDS011;11780;13.904;100.620;2024-03-02T15:34:15;35.22;;;31.85;;
23222;SDS011;11780;13.904;100.620;2024-03-02T15:36:46;36.58;;;33.08;;